sensor_id;sensor_type;location;lat;lon;timestamp;P1;durP1;ratioP1;P2;durP2;ratioP2
68888;SDS011;55930;47.412;8.790;2022-08-19T00:01:32;13.07;;;10.95;;
68888;SDS011;55930;47.412;8.790;2022-08-19T00:03:59;12.13;;;10.77;;
68888;SDS011;55930;47.412;8.790;2022-08-19T00:06:27;11.55;;;10.27;;
68888;SDS011;55930;47.412;8.790;2022-08-19T00:08:54;12.27;;;10.98;;
68888;SDS011;55930;47.412;8.790;2022-08-19T00:11:22;13.13;;;11.82;;
68888;SDS011;55930;47.412;8.790;2022-08-19T00:13:49;13.23;;;11.80;;
68888;SDS011;55930;47.412;8.790;2022-08-19T00:16:15;15.50;;;11.85;;
68888;SDS011;55930;47.412;8.790;2022-08-19T00:18:44;12.30;;;11.10;;
68888;SDS011;55930;47.412;8.790;2022-08-19T00:21:09;11.75;;;10.63;;
68888;SDS011;55930;47.412;8.790;2022-08-19T00:23:35;14.15;;;12.75;;
68888;SDS011;55930;47.412;8.790;2022-08-19T00:26:06;13.63;;;12.27;;
68888;SDS011;55930;47.412;8.790;2022-08-19T00:28:34;12.73;;;11.43;;
68888;SDS011;55930;47.412;8.790;2022-08-19T00:31:01;15.18;;;12.50;;
68888;SDS011;55930;47.412;8.790;2022-08-19T00:33:30;13.43;;;12.13;;
68888;SDS011;55930;47.412;8.790;2022-08-19T00:36:02;14.00;;;12.60;;
68888;SDS011;55930;47.412;8.790;2022-08-19T00:38:31;15.00;;;11.10;;
68888;SDS011;55930;47.412;8.790;2022-08-19T00:40:57;14.07;;;12.57;;
68888;SDS011;55930;47.412;8.790;2022-08-19T00:43:24;14.13;;;12.70;;
68888;SDS011;55930;47.412;8.790;2022-08-19T00:45:51;13.50;;;12.13;;
68888;SDS011;55930;47.412;8.790;2022-08-19T00:48:18;13.02;;;11.73;;
68888;SDS011;55930;47.412;8.790;2022-08-19T00:50:46;13.60;;;12.20;;
68888;SDS011;55930;47.412;8.790;2022-08-19T00:53:14;13.27;;;11.88;;
68888;SDS011;55930;47.412;8.790;2022-08-19T00:55:47;13.68;;;12.30;;
68888;SDS011;55930;47.412;8.790;2022-08-19T00:58:16;12.32;;;11.13;;
68888;SDS011;55930;47.412;8.790;2022-08-19T01:00:46;11.98;;;10.77;;
68888;SDS011;55930;47.412;8.790;2022-08-19T01:03:16;12.85;;;11.57;;
68888;SDS011;55930;47.412;8.790;2022-08-19T01:05:44;14.48;;;11.95;;
68888;SDS011;55930;47.412;8.790;2022-08-19T01:08:10;16.05;;;12.48;;
68888;SDS011;55930;47.412;8.790;2022-08-19T01:10:39;12.82;;;11.52;;
68888;SDS011;55930;47.412;8.790;2022-08-19T01:13:07;13.38;;;11.98;;
68888;SDS011;55930;47.412;8.790;2022-08-19T01:15:39;13.27;;;12.05;;
68888;SDS011;55930;47.412;8.790;2022-08-19T01:18:09;13.23;;;11.82;;
68888;SDS011;55930;47.412;8.790;2022-08-19T01:20:37;14.35;;;12.95;;
68888;SDS011;55930;47.412;8.790;2022-08-19T01:23:02;13.18;;;11.77;;
68888;SDS011;55930;47.412;8.790;2022-08-19T01:25:33;13.60;;;12.18;;
68888;SDS011;55930;47.412;8.790;2022-08-19T01:28:21;13.70;;;12.15;;
68888;SDS011;55930;47.412;8.790;2022-08-19T01:30:51;14.52;;;12.02;;
68888;SDS011;55930;47.412;8.790;2022-08-19T01:33:17;13.50;;;12.20;;
68888;SDS011;55930;47.412;8.790;2022-08-19T01:35:47;14.18;;;11.73;;
68888;SDS011;55930;47.412;8.790;2022-08-19T01:38:21;12.50;;;11.15;;
68888;SDS011;55930;47.412;8.790;2022-08-19T01:40:51;14.40;;;12.93;;
68888;SDS011;55930;47.412;8.790;2022-08-19T01:43:17;14.18;;;12.30;;
68888;SDS011;55930;47.412;8.790;2022-08-19T01:45:44;13.52;;;11.25;;
68888;SDS011;55930;47.412;8.790;2022-08-19T01:48:11;12.55;;;11.25;;
68888;SDS011;55930;47.412;8.790;2022-08-19T01:50:37;12.27;;;11.05;;
68888;SDS011;55930;47.412;8.790;2022-08-19T01:53:05;11.77;;;10.60;;
68888;SDS011;55930;47.412;8.790;2022-08-19T01:55:32;13.27;;;11.60;;
68888;SDS011;55930;47.412;8.790;2022-08-19T01:58:00;11.93;;;10.52;;
68888;SDS011;55930;47.412;8.790;2022-08-19T02:00:30;11.63;;;10.43;;
68888;SDS011;55930;47.412;8.790;2022-08-19T02:02:57;13.77;;;12.38;;
68888;SDS011;55930;47.412;8.790;2022-08-19T02:05:22;12.65;;;10.88;;
68888;SDS011;55930;47.412;8.790;2022-08-19T02:07:48;12.40;;;11.10;;
68888;SDS011;55930;47.412;8.790;2022-08-19T02:10:18;10.95;;;9.95;;
68888;SDS011;55930;47.412;8.790;2022-08-19T02:12:48;10.73;;;9.65;;
68888;SDS011;55930;47.412;8.790;2022-08-19T02:15:17;10.23;;;9.18;;
68888;SDS011;55930;47.412;8.790;2022-08-19T02:17:44;10.35;;;9.35;;
68888;SDS011;55930;47.412;8.790;2022-08-19T02:20:10;9.55;;;8.65;;
68888;SDS011;55930;47.412;8.790;2022-08-19T02:22:37;9.50;;;8.50;;
68888;SDS011;55930;47.412;8.790;2022-08-19T02:25:02;9.57;;;8.68;;
68888;SDS011;55930;47.412;8.790;2022-08-19T02:27:31;9.18;;;8.38;;
68888;SDS011;55930;47.412;8.790;2022-08-19T02:29:57;8.52;;;7.40;;
68888;SDS011;55930;47.412;8.790;2022-08-19T02:32:22;8.60;;;7.75;;
68888;SDS011;55930;47.412;8.790;2022-08-19T02:34:47;8.65;;;7.75;;
68888;SDS011;55930;47.412;8.790;2022-08-19T02:37:13;7.47;;;6.78;;
68888;SDS011;55930;47.412;8.790;2022-08-19T02:39:58;9.27;;;7.70;;
68888;SDS011;55930;47.412;8.790;2022-08-19T02:42:26;8.50;;;7.70;;
68888;SDS011;55930;47.412;8.790;2022-08-19T02:44:51;7.57;;;6.88;;
68888;SDS011;55930;47.412;8.790;2022-08-19T02:47:17;8.43;;;7.45;;
68888;SDS011;55930;47.412;8.790;2022-08-19T02:49:44;8.85;;;7.43;;
68888;SDS011;55930;47.412;8.790;2022-08-19T02:52:10;8.63;;;7.40;;
68888;SDS011;55930;47.412;8.790;2022-08-19T02:54:36;8.52;;;7.70;;
68888;SDS011;55930;47.412;8.790;2022-08-19T02:57:02;8.75;;;7.88;;
68888;SDS011;55930;47.412;8.790;2022-08-19T02:59:31;8.20;;;7.38;;
68888;SDS011;55930;47.412;8.790;2022-08-19T03:01:57;10.38;;;7.68;;
68888;SDS011;55930;47.412;8.790;2022-08-19T03:04:22;7.65;;;6.90;;
68888;SDS011;55930;47.412;8.790;2022-08-19T03:06:50;7.70;;;7.00;;
68888;SDS011;55930;47.412;8.790;2022-08-19T03:09:16;8.00;;;7.20;;
68888;SDS011;55930;47.412;8.790;2022-08-19T03:11:45;8.55;;;7.70;;
68888;SDS011;55930;47.412;8.790;2022-08-19T03:14:11;7.80;;;7.07;;
68888;SDS011;55930;47.412;8.790;2022-08-19T03:16:45;9.75;;;8.20;;
68888;SDS011;55930;47.412;8.790;2022-08-19T03:19:15;8.45;;;7.65;;
68888;SDS011;55930;47.412;8.790;2022-08-19T03:21:42;7.85;;;7.05;;
68888;SDS011;55930;47.412;8.790;2022-08-19T03:24:09;8.55;;;7.63;;
68888;SDS011;55930;47.412;8.790;2022-08-19T03:26:39;10.02;;;7.18;;
68888;SDS011;55930;47.412;8.790;2022-08-19T03:29:05;8.55;;;7.50;;
68888;SDS011;55930;47.412;8.790;2022-08-19T03:31:31;9.05;;;7.40;;
68888;SDS011;55930;47.412;8.790;2022-08-19T03:33:57;8.10;;;6.63;;
68888;SDS011;55930;47.412;8.790;2022-08-19T03:36:24;7.80;;;6.40;;
68888;SDS011;55930;47.412;8.790;2022-08-19T03:38:55;6.53;;;5.82;;
68888;SDS011;55930;47.412;8.790;2022-08-19T03:41:26;7.45;;;6.60;;
68888;SDS011;55930;47.412;8.790;2022-08-19T03:43:53;7.45;;;6.63;;
68888;SDS011;55930;47.412;8.790;2022-08-19T03:46:23;7.50;;;6.72;;
68888;SDS011;55930;47.412;8.790;2022-08-19T03:48:54;8.45;;;7.55;;
68888;SDS011;55930;47.412;8.790;2022-08-19T03:51:31;8.13;;;7.00;;
68888;SDS011;55930;47.412;8.790;2022-08-19T03:54:01;8.48;;;7.25;;
68888;SDS011;55930;47.412;8.790;2022-08-19T03:56:29;7.38;;;6.68;;
68888;SDS011;55930;47.412;8.790;2022-08-19T03:58:56;8.60;;;7.70;;
68888;SDS011;55930;47.412;8.790;2022-08-19T04:01:23;9.05;;;8.15;;
68888;SDS011;55930;47.412;8.790;2022-08-19T04:03:51;11.02;;;8.63;;
68888;SDS011;55930;47.412;8.790;2022-08-19T04:06:22;9.70;;;8.55;;
68888;SDS011;55930;47.412;8.790;2022-08-19T04:08:50;10.55;;;8.63;;
68888;SDS011;55930;47.412;8.790;2022-08-19T04:11:20;14.25;;;11.88;;
68888;SDS011;55930;47.412;8.790;2022-08-19T04:13:47;14.85;;;12.90;;
68888;SDS011;55930;47.412;8.790;2022-08-19T04:16:14;15.60;;;13.15;;
68888;SDS011;55930;47.412;8.790;2022-08-19T04:18:40;16.05;;;13.48;;
68888;SDS011;55930;47.412;8.790;2022-08-19T04:21:06;18.55;;;14.55;;
68888;SDS011;55930;47.412;8.790;2022-08-19T04:23:33;19.85;;;15.98;;
68888;SDS011;55930;47.412;8.790;2022-08-19T04:26:01;20.50;;;16.42;;
68888;SDS011;55930;47.412;8.790;2022-08-19T04:28:27;25.30;;;19.60;;
68888;SDS011;55930;47.412;8.790;2022-08-19T04:30:55;22.80;;;18.88;;
68888;SDS011;55930;47.412;8.790;2022-08-19T04:33:22;21.75;;;19.27;;
68888;SDS011;55930;47.412;8.790;2022-08-19T04:35:49;24.20;;;19.52;;
68888;SDS011;55930;47.412;8.790;2022-08-19T04:38:18;24.83;;;19.92;;
68888;SDS011;55930;47.412;8.790;2022-08-19T04:40:49;23.95;;;19.98;;
68888;SDS011;55930;47.412;8.790;2022-08-19T04:43:34;21.70;;;18.88;;
68888;SDS011;55930;47.412;8.790;2022-08-19T04:46:07;21.50;;;19.20;;
68888;SDS011;55930;47.412;8.790;2022-08-19T04:48:34;21.42;;;19.15;;
68888;SDS011;55930;47.412;8.790;2022-08-19T04:51:00;21.00;;;18.80;;
68888;SDS011;55930;47.412;8.790;2022-08-19T04:53:29;22.48;;;20.08;;
68888;SDS011;55930;47.412;8.790;2022-08-19T04:55:59;22.48;;;20.15;;
68888;SDS011;55930;47.412;8.790;2022-08-19T04:58:29;21.15;;;18.95;;
68888;SDS011;55930;47.412;8.790;2022-08-19T05:00:55;22.80;;;20.35;;
68888;SDS011;55930;47.412;8.790;2022-08-19T05:03:20;22.13;;;19.83;;
68888;SDS011;55930;47.412;8.790;2022-08-19T05:05:47;23.42;;;20.92;;
68888;SDS011;55930;47.412;8.790;2022-08-19T05:08:14;23.48;;;21.02;;
68888;SDS011;55930;47.412;8.790;2022-08-19T05:10:45;24.48;;;21.88;;
68888;SDS011;55930;47.412;8.790;2022-08-19T05:13:13;24.65;;;21.90;;
68888;SDS011;55930;47.412;8.790;2022-08-19T05:15:39;23.58;;;21.15;;
68888;SDS011;55930;47.412;8.790;2022-08-19T05:18:05;22.73;;;20.42;;
68888;SDS011;55930;47.412;8.790;2022-08-19T05:20:49;21.35;;;19.15;;
68888;SDS011;55930;47.412;8.790;2022-08-19T05:23:33;21.73;;;19.38;;
68888;SDS011;55930;47.412;8.790;2022-08-19T05:25:58;23.15;;;19.98;;
68888;SDS011;55930;47.412;8.790;2022-08-19T05:28:23;22.05;;;19.67;;
68888;SDS011;55930;47.412;8.790;2022-08-19T05:30:49;22.33;;;20.02;;
68888;SDS011;55930;47.412;8.790;2022-08-19T05:33:16;22.83;;;20.10;;
68888;SDS011;55930;47.412;8.790;2022-08-19T05:35:42;24.75;;;21.48;;
68888;SDS011;55930;47.412;8.790;2022-08-19T05:38:09;22.27;;;19.88;;
68888;SDS011;55930;47.412;8.790;2022-08-19T05:40:36;20.80;;;18.60;;
68888;SDS011;55930;47.412;8.790;2022-08-19T05:43:05;20.75;;;18.55;;
68888;SDS011;55930;47.412;8.790;2022-08-19T05:45:32;21.30;;;19.08;;
68888;SDS011;55930;47.412;8.790;2022-08-19T05:48:03;23.30;;;19.63;;
68888;SDS011;55930;47.412;8.790;2022-08-19T05:50:28;22.67;;;20.35;;
68888;SDS011;55930;47.412;8.790;2022-08-19T05:52:54;21.55;;;19.35;;
68888;SDS011;55930;47.412;8.790;2022-08-19T05:55:19;23.35;;;20.95;;
68888;SDS011;55930;47.412;8.790;2022-08-19T05:57:47;21.92;;;19.73;;
68888;SDS011;55930;47.412;8.790;2022-08-19T06:00:12;18.38;;;16.60;;
68888;SDS011;55930;47.412;8.790;2022-08-19T06:02:39;20.00;;;18.00;;
68888;SDS011;55930;47.412;8.790;2022-08-19T06:05:05;20.15;;;18.15;;
68888;SDS011;55930;47.412;8.790;2022-08-19T06:07:37;21.33;;;19.02;;
68888;SDS011;55930;47.412;8.790;2022-08-19T06:10:04;19.80;;;17.83;;
68888;SDS011;55930;47.412;8.790;2022-08-19T06:12:32;23.45;;;21.15;;
68888;SDS011;55930;47.412;8.790;2022-08-19T06:15:05;23.45;;;20.95;;
68888;SDS011;55930;47.412;8.790;2022-08-19T06:17:37;22.10;;;19.83;;
68888;SDS011;55930;47.412;8.790;2022-08-19T06:20:04;23.92;;;21.48;;
68888;SDS011;55930;47.412;8.790;2022-08-19T06:22:40;24.40;;;21.70;;
68888;SDS011;55930;47.412;8.790;2022-08-19T06:25:10;25.55;;;22.88;;
68888;SDS011;55930;47.412;8.790;2022-08-19T06:27:36;24.45;;;21.23;;
68888;SDS011;55930;47.412;8.790;2022-08-19T06:30:02;25.23;;;22.48;;
68888;SDS011;55930;47.412;8.790;2022-08-19T06:32:29;22.20;;;19.90;;
68888;SDS011;55930;47.412;8.790;2022-08-19T06:34:54;24.90;;;22.30;;
68888;SDS011;55930;47.412;8.790;2022-08-19T06:37:19;22.55;;;20.33;;
68888;SDS011;55930;47.412;8.790;2022-08-19T06:39:46;22.88;;;20.55;;
68888;SDS011;55930;47.412;8.790;2022-08-19T06:42:12;22.67;;;20.38;;
68888;SDS011;55930;47.412;8.790;2022-08-19T06:44:41;22.75;;;20.40;;
68888;SDS011;55930;47.412;8.790;2022-08-19T06:47:10;21.25;;;19.05;;
68888;SDS011;55930;47.412;8.790;2022-08-19T06:49:38;19.95;;;17.85;;
68888;SDS011;55930;47.412;8.790;2022-08-19T06:52:04;19.90;;;17.80;;
68888;SDS011;55930;47.412;8.790;2022-08-19T06:54:30;18.23;;;16.35;;
68888;SDS011;55930;47.412;8.790;2022-08-19T06:56:57;17.33;;;15.55;;
68888;SDS011;55930;47.412;8.790;2022-08-19T06:59:24;17.02;;;15.23;;
68888;SDS011;55930;47.412;8.790;2022-08-19T07:01:53;18.50;;;16.70;;
68888;SDS011;55930;47.412;8.790;2022-08-19T07:04:23;18.90;;;16.92;;
68888;SDS011;55930;47.412;8.790;2022-08-19T07:06:57;18.08;;;16.38;;
68888;SDS011;55930;47.412;8.790;2022-08-19T07:09:26;16.83;;;15.02;;
68888;SDS011;55930;47.412;8.790;2022-08-19T07:11:52;18.27;;;16.48;;
68888;SDS011;55930;47.412;8.790;2022-08-19T07:14:20;18.10;;;16.20;;
68888;SDS011;55930;47.412;8.790;2022-08-19T07:16:50;19.20;;;17.20;;
68888;SDS011;55930;47.412;8.790;2022-08-19T07:19:19;19.10;;;17.20;;
68888;SDS011;55930;47.412;8.790;2022-08-19T07:21:47;19.30;;;17.30;;
68888;SDS011;55930;47.412;8.790;2022-08-19T07:24:14;20.35;;;17.70;;
68888;SDS011;55930;47.412;8.790;2022-08-19T07:26:41;17.00;;;15.23;;
68888;SDS011;55930;47.412;8.790;2022-08-19T07:29:08;17.15;;;15.35;;
68888;SDS011;55930;47.412;8.790;2022-08-19T07:31:35;15.77;;;14.10;;
68888;SDS011;55930;47.412;8.790;2022-08-19T07:34:02;15.57;;;13.82;;
68888;SDS011;55930;47.412;8.790;2022-08-19T07:36:32;15.55;;;13.95;;
68888;SDS011;55930;47.412;8.790;2022-08-19T07:38:59;16.15;;;14.48;;
68888;SDS011;55930;47.412;8.790;2022-08-19T07:41:28;16.30;;;14.70;;
68888;SDS011;55930;47.412;8.790;2022-08-19T07:43:56;18.20;;;15.88;;
68888;SDS011;55930;47.412;8.790;2022-08-19T07:46:22;16.58;;;14.88;;
68888;SDS011;55930;47.412;8.790;2022-08-19T07:48:49;16.45;;;14.63;;
68888;SDS011;55930;47.412;8.790;2022-08-19T07:51:18;16.77;;;15.18;;
68888;SDS011;55930;47.412;8.790;2022-08-19T07:53:45;15.82;;;14.18;;
68888;SDS011;55930;47.412;8.790;2022-08-19T07:56:12;16.80;;;15.02;;
68888;SDS011;55930;47.412;8.790;2022-08-19T07:58:40;17.60;;;15.52;;
68888;SDS011;55930;47.412;8.790;2022-08-19T08:01:07;16.05;;;14.43;;
68888;SDS011;55930;47.412;8.790;2022-08-19T08:03:36;15.55;;;13.98;;
68888;SDS011;55930;47.412;8.790;2022-08-19T08:06:21;16.15;;;13.20;;
68888;SDS011;55930;47.412;8.790;2022-08-19T08:09:05;15.45;;;13.85;;
68888;SDS011;55930;47.412;8.790;2022-08-19T08:11:48;13.93;;;12.52;;
68888;SDS011;55930;47.412;8.790;2022-08-19T08:14:23;13.48;;;12.05;;
68888;SDS011;55930;47.412;8.790;2022-08-19T08:16:51;14.45;;;12.60;;
68888;SDS011;55930;47.412;8.790;2022-08-19T08:19:20;14.88;;;12.63;;
68888;SDS011;55930;47.412;8.790;2022-08-19T08:21:47;14.82;;;13.32;;
68888;SDS011;55930;47.412;8.790;2022-08-19T08:24:13;12.88;;;11.57;;
68888;SDS011;55930;47.412;8.790;2022-08-19T08:26:39;13.70;;;12.30;;
68888;SDS011;55930;47.412;8.790;2022-08-19T08:29:05;12.15;;;10.88;;
68888;SDS011;55930;47.412;8.790;2022-08-19T08:31:33;11.57;;;10.48;;
68888;SDS011;55930;47.412;8.790;2022-08-19T08:33:59;11.15;;;10.02;;
68888;SDS011;55930;47.412;8.790;2022-08-19T08:36:24;12.70;;;11.27;;
68888;SDS011;55930;47.412;8.790;2022-08-19T08:38:50;13.13;;;11.80;;
68888;SDS011;55930;47.412;8.790;2022-08-19T08:44:12;11.10;;;10.05;;
68888;SDS011;55930;47.412;8.790;2022-08-19T08:46:42;9.68;;;8.77;;
68888;SDS011;55930;47.412;8.790;2022-08-19T08:52:33;11.48;;;10.13;;
68888;SDS011;55930;47.412;8.790;2022-08-19T08:54:44;11.30;;;10.13;;
68888;SDS011;55930;47.412;8.790;2022-08-19T08:57:18;12.50;;;10.88;;
68888;SDS011;55930;47.412;8.790;2022-08-19T08:59:51;11.43;;;10.32;;
68888;SDS011;55930;47.412;8.790;2022-08-19T09:04:47;14.98;;;13.18;;
68888;SDS011;55930;47.412;8.790;2022-08-19T09:07:16;17.35;;;15.55;;
68888;SDS011;55930;47.412;8.790;2022-08-19T09:10:44;18.35;;;15.82;;
68888;SDS011;55930;47.412;8.790;2022-08-19T09:15:42;17.63;;;15.48;;
68888;SDS011;55930;47.412;8.790;2022-08-19T09:18:10;17.20;;;15.40;;
68888;SDS011;55930;47.412;8.790;2022-08-19T09:20:36;17.35;;;15.52;;
68888;SDS011;55930;47.412;8.790;2022-08-19T09:23:02;16.42;;;14.73;;
68888;SDS011;55930;47.412;8.790;2022-08-19T09:25:28;16.05;;;14.20;;
68888;SDS011;55930;47.412;8.790;2022-08-19T09:27:56;15.80;;;14.20;;
68888;SDS011;55930;47.412;8.790;2022-08-19T09:30:27;16.00;;;14.25;;
68888;SDS011;55930;47.412;8.790;2022-08-19T09:32:55;15.88;;;14.18;;
68888;SDS011;55930;47.412;8.790;2022-08-19T09:35:21;16.23;;;14.43;;
68888;SDS011;55930;47.412;8.790;2022-08-19T09:37:48;16.27;;;14.40;;
68888;SDS011;55930;47.412;8.790;2022-08-19T09:40:14;16.38;;;14.30;;
68888;SDS011;55930;47.412;8.790;2022-08-19T09:42:40;17.20;;;15.40;;
68888;SDS011;55930;47.412;8.790;2022-08-19T09:45:09;18.17;;;16.27;;
68888;SDS011;55930;47.412;8.790;2022-08-19T09:47:35;19.58;;;17.15;;
68888;SDS011;55930;47.412;8.790;2022-08-19T09:50:03;18.33;;;16.42;;
68888;SDS011;55930;47.412;8.790;2022-08-19T09:52:30;20.77;;;18.58;;
68888;SDS011;55930;47.412;8.790;2022-08-19T09:54:56;22.55;;;19.20;;
68888;SDS011;55930;47.412;8.790;2022-08-19T09:57:24;19.45;;;17.35;;
68888;SDS011;55930;47.412;8.790;2022-08-19T09:59:49;19.50;;;17.40;;
68888;SDS011;55930;47.412;8.790;2022-08-19T10:02:14;18.98;;;16.98;;
68888;SDS011;55930;47.412;8.790;2022-08-19T10:04:40;22.23;;;19.50;;
68888;SDS011;55930;47.412;8.790;2022-08-19T10:07:24;21.50;;;18.08;;
68888;SDS011;55930;47.412;8.790;2022-08-19T10:09:49;18.75;;;16.80;;
68888;SDS011;55930;47.412;8.790;2022-08-19T10:12:17;20.33;;;17.92;;
68888;SDS011;55930;47.412;8.790;2022-08-19T10:14:45;20.02;;;17.80;;
68888;SDS011;55930;47.412;8.790;2022-08-19T10:17:11;23.58;;;18.73;;
68888;SDS011;55930;47.412;8.790;2022-08-19T10:19:36;22.17;;;19.77;;
68888;SDS011;55930;47.412;8.790;2022-08-19T10:22:06;24.27;;;20.20;;
68888;SDS011;55930;47.412;8.790;2022-08-19T10:24:32;24.05;;;21.35;;
68888;SDS011;55930;47.412;8.790;2022-08-19T10:26:59;24.92;;;22.17;;
68888;SDS011;55930;47.412;8.790;2022-08-19T10:29:28;26.23;;;23.40;;
68888;SDS011;55930;47.412;8.790;2022-08-19T10:31:54;26.10;;;23.33;;
68888;SDS011;55930;47.412;8.790;2022-08-19T10:34:20;30.15;;;25.42;;
68888;SDS011;55930;47.412;8.790;2022-08-19T10:36:46;29.13;;;25.95;;
68888;SDS011;55930;47.412;8.790;2022-08-19T10:39:11;29.08;;;25.05;;
68888;SDS011;55930;47.412;8.790;2022-08-19T10:41:38;29.67;;;24.02;;
68888;SDS011;55930;47.412;8.790;2022-08-19T10:44:05;29.30;;;25.33;;
68888;SDS011;55930;47.412;8.790;2022-08-19T10:46:36;26.38;;;23.50;;
68888;SDS011;55930;47.412;8.790;2022-08-19T10:49:04;28.58;;;25.10;;
68888;SDS011;55930;47.412;8.790;2022-08-19T10:51:33;29.25;;;24.98;;
68888;SDS011;55930;47.412;8.790;2022-08-19T10:54:17;30.60;;;25.65;;
68888;SDS011;55930;47.412;8.790;2022-08-19T10:56:43;29.60;;;26.35;;
68888;SDS011;55930;47.412;8.790;2022-08-19T10:59:18;28.98;;;25.85;;
68888;SDS011;55930;47.412;8.790;2022-08-19T11:01:46;31.85;;;26.17;;
68888;SDS011;55930;47.412;8.790;2022-08-19T11:04:12;27.05;;;24.15;;
68888;SDS011;55930;47.412;8.790;2022-08-19T11:06:42;29.98;;;25.77;;
68888;SDS011;55930;47.412;8.790;2022-08-19T11:09:13;26.85;;;23.25;;
68888;SDS011;55930;47.412;8.790;2022-08-19T11:11:40;25.02;;;22.33;;
68888;SDS011;55930;47.412;8.790;2022-08-19T11:14:10;27.77;;;24.13;;
68888;SDS011;55930;47.412;8.790;2022-08-19T11:16:39;25.40;;;22.50;;
68888;SDS011;55930;47.412;8.790;2022-08-19T11:19:06;25.83;;;23.05;;
68888;SDS011;55930;47.412;8.790;2022-08-19T11:21:40;26.52;;;23.23;;
68888;SDS011;55930;47.412;8.790;2022-08-19T11:24:10;31.33;;;25.45;;
68888;SDS011;55930;47.412;8.790;2022-08-19T11:26:40;31.83;;;26.27;;
68888;SDS011;55930;47.412;8.790;2022-08-19T11:29:10;29.35;;;26.15;;
68888;SDS011;55930;47.412;8.790;2022-08-19T11:31:39;28.52;;;24.50;;
68888;SDS011;55930;47.412;8.790;2022-08-19T11:34:07;29.75;;;25.20;;
68888;SDS011;55930;47.412;8.790;2022-08-19T11:36:36;32.75;;;28.23;;
68888;SDS011;55930;47.412;8.790;2022-08-19T11:39:04;32.75;;;28.23;;
68888;SDS011;55930;47.412;8.790;2022-08-19T11:41:30;31.65;;;27.08;;
68888;SDS011;55930;47.412;8.790;2022-08-19T11:43:58;30.77;;;26.60;;
68888;SDS011;55930;47.412;8.790;2022-08-19T11:46:25;30.50;;;25.80;;
68888;SDS011;55930;47.412;8.790;2022-08-19T11:48:54;27.70;;;24.83;;
68888;SDS011;55930;47.412;8.790;2022-08-19T11:51:21;28.77;;;25.65;;
68888;SDS011;55930;47.412;8.790;2022-08-19T11:53:49;29.73;;;26.48;;
68888;SDS011;55930;47.412;8.790;2022-08-19T11:56:15;32.63;;;28.30;;
68888;SDS011;55930;47.412;8.790;2022-08-19T11:58:42;33.05;;;28.35;;
68888;SDS011;55930;47.412;8.790;2022-08-19T12:01:10;32.80;;;29.25;;
68888;SDS011;55930;47.412;8.790;2022-08-19T12:03:37;32.20;;;28.75;;
68888;SDS011;55930;47.412;8.790;2022-08-19T12:06:06;31.63;;;27.35;;
68888;SDS011;55930;47.412;8.790;2022-08-19T12:08:35;35.55;;;28.90;;
68888;SDS011;55930;47.412;8.790;2022-08-19T12:11:00;33.85;;;27.45;;
68888;SDS011;55930;47.412;8.790;2022-08-19T12:13:27;31.13;;;27.40;;
68888;SDS011;55930;47.412;8.790;2022-08-19T12:15:56;30.58;;;26.40;;
68888;SDS011;55930;47.412;8.790;2022-08-19T12:18:25;33.00;;;27.98;;
68888;SDS011;55930;47.412;8.790;2022-08-19T12:20:51;30.63;;;26.90;;
68888;SDS011;55930;47.412;8.790;2022-08-19T12:23:19;33.28;;;27.55;;
68888;SDS011;55930;47.412;8.790;2022-08-19T12:25:45;30.02;;;26.10;;
68888;SDS011;55930;47.412;8.790;2022-08-19T12:28:15;33.20;;;28.30;;
68888;SDS011;55930;47.412;8.790;2022-08-19T12:30:41;33.92;;;28.08;;
68888;SDS011;55930;47.412;8.790;2022-08-19T12:33:08;35.00;;;29.00;;
68888;SDS011;55930;47.412;8.790;2022-08-19T12:35:34;32.72;;;28.55;;
68888;SDS011;55930;47.412;8.790;2022-08-19T12:38:00;34.40;;;27.77;;
68888;SDS011;55930;47.412;8.790;2022-08-19T12:40:26;28.67;;;24.67;;
68888;SDS011;55930;47.412;8.790;2022-08-19T12:42:52;34.83;;;26.90;;
68888;SDS011;55930;47.412;8.790;2022-08-19T12:45:22;32.15;;;26.85;;
68888;SDS011;55930;47.412;8.790;2022-08-19T12:47:48;33.30;;;27.92;;
68888;SDS011;55930;47.412;8.790;2022-08-19T12:50:14;33.42;;;28.02;;
68888;SDS011;55930;47.412;8.790;2022-08-19T12:52:39;33.53;;;27.35;;
68888;SDS011;55930;47.412;8.790;2022-08-19T12:55:07;35.60;;;28.77;;
68888;SDS011;55930;47.412;8.790;2022-08-19T12:57:33;36.17;;;29.73;;
68888;SDS011;55930;47.412;8.790;2022-08-19T13:00:02;34.40;;;28.05;;
68888;SDS011;55930;47.412;8.790;2022-08-19T13:02:40;30.60;;;27.13;;
68888;SDS011;55930;47.412;8.790;2022-08-19T13:05:13;32.72;;;27.90;;
68888;SDS011;55930;47.412;8.790;2022-08-19T13:07:40;34.83;;;28.40;;
68888;SDS011;55930;47.412;8.790;2022-08-19T13:10:07;32.97;;;28.10;;
68888;SDS011;55930;47.412;8.790;2022-08-19T13:12:36;35.67;;;29.95;;
68888;SDS011;55930;47.412;8.790;2022-08-19T13:15:03;37.75;;;32.15;;
68888;SDS011;55930;47.412;8.790;2022-08-19T13:17:32;34.70;;;30.33;;
68888;SDS011;55930;47.412;8.790;2022-08-19T13:19:58;35.00;;;30.52;;
68888;SDS011;55930;47.412;8.790;2022-08-19T13:22:26;36.10;;;29.95;;
68888;SDS011;55930;47.412;8.790;2022-08-19T13:24:52;36.15;;;30.80;;
68888;SDS011;55930;47.412;8.790;2022-08-19T13:27:17;35.70;;;30.35;;
68888;SDS011;55930;47.412;8.790;2022-08-19T13:29:43;36.03;;;29.98;;
68888;SDS011;55930;47.412;8.790;2022-08-19T13:32:30;35.35;;;30.40;;
68888;SDS011;55930;47.412;8.790;2022-08-19T13:35:14;37.22;;;30.63;;
68888;SDS011;55930;47.412;8.790;2022-08-19T13:37:45;39.70;;;32.53;;
68888;SDS011;55930;47.412;8.790;2022-08-19T13:40:15;35.00;;;30.85;;
68888;SDS011;55930;47.412;8.790;2022-08-19T13:42:49;35.92;;;30.27;;
68888;SDS011;55930;47.412;8.790;2022-08-19T13:45:17;37.08;;;31.48;;
68888;SDS011;55930;47.412;8.790;2022-08-19T13:47:55;39.25;;;31.77;;
68888;SDS011;55930;47.412;8.790;2022-08-19T13:50:26;38.83;;;31.67;;
68888;SDS011;55930;47.412;8.790;2022-08-19T13:52:53;41.80;;;31.88;;
68888;SDS011;55930;47.412;8.790;2022-08-19T13:55:23;36.97;;;31.77;;
68888;SDS011;55930;47.412;8.790;2022-08-19T13:57:50;37.75;;;31.55;;
68888;SDS011;55930;47.412;8.790;2022-08-19T14:00:20;36.55;;;30.88;;
68888;SDS011;55930;47.412;8.790;2022-08-19T14:02:50;36.83;;;30.80;;
68888;SDS011;55930;47.412;8.790;2022-08-19T14:05:16;37.10;;;32.22;;
68888;SDS011;55930;47.412;8.790;2022-08-19T14:07:43;36.28;;;30.67;;
68888;SDS011;55930;47.412;8.790;2022-08-19T14:10:11;41.10;;;32.97;;
68888;SDS011;55930;47.412;8.790;2022-08-19T14:12:38;36.63;;;32.15;;
68888;SDS011;55930;47.412;8.790;2022-08-19T14:15:04;42.20;;;31.75;;
68888;SDS011;55930;47.412;8.790;2022-08-19T14:17:34;36.03;;;30.45;;
68888;SDS011;55930;47.412;8.790;2022-08-19T14:20:01;36.15;;;32.20;;
68888;SDS011;55930;47.412;8.790;2022-08-19T14:22:34;38.20;;;31.48;;
68888;SDS011;55930;47.412;8.790;2022-08-19T14:25:03;38.95;;;32.40;;
68888;SDS011;55930;47.412;8.790;2022-08-19T14:27:30;36.83;;;32.65;;
68888;SDS011;55930;47.412;8.790;2022-08-19T14:29:57;39.42;;;32.55;;
68888;SDS011;55930;47.412;8.790;2022-08-19T14:32:23;36.50;;;31.70;;
68888;SDS011;55930;47.412;8.790;2022-08-19T14:34:51;38.75;;;32.85;;
68888;SDS011;55930;47.412;8.790;2022-08-19T14:37:17;39.78;;;33.03;;
68888;SDS011;55930;47.412;8.790;2022-08-19T14:39:42;40.10;;;32.60;;
68888;SDS011;55930;47.412;8.790;2022-08-19T14:42:09;39.28;;;33.55;;
68888;SDS011;55930;47.412;8.790;2022-08-19T14:44:36;38.88;;;31.92;;